CYYL

Lynn Lake Airport

Lynn Lake, Manitoba, Canada
METAR CYYL 220600Z AUTO 09009KT 9SM FEW070 OVC100 06/M00 A2981 RMK SLP111
Observed Flight Rules
Apr-22 @ 06:00 UTC (57 minutes ago) Visual Flight Rules
Wind Visibility Clouds
90° at 9 knots 9 miles
  • Few at 7,000' AGL
  • Overcast at 10,000' AGL
Temperatures Readings
Current 6°C / 43°F
Dewpoint 0°C / 32°F
Humidity 66%
Altimeter 29.81" Hg
Pressure 1011.1 hPa
Elevation 357
METAR CYYL 220600Z AUTO 09009KT 9SM FEW070 OVC100 06/M00 A2981 RMK SLP111
Observed Flight Rules
Apr-22 @ 06:00 UTC
(57 minutes ago)
VFR
Wind Visibility
90° at 9 knots 9 miles
Clouds
  • Few at 7,000' AGL
  • Overcast at 10,000' AGL
Temperature Dewpoint
6°C / 43°F 0°C / 32°F
Humidity Altimeter Pressure
66% 29.81" Hg 1011.1 hPa